VTK601 USDD-UUYY
Flight info
| Callsign | VTK601 |
|---|---|
| Flight time | 1h 16m |
| Altitude | 36000 |
| Route | SUTOT1M SUTOT T816 UHT T818 TELRA TELRA1L |
| Aircraft | MD11/H-SDE1E2E3FGHIJ2J3J4J5M1RWXY/LB1D1 |
Departure
| Time | 2026-04-20 14:34 |
|---|---|
| Airport | Salekhard Airport (USDD) |
Arrival
| Time | 2026-04-20 15:51 |
|---|---|
| Airport | Syktyvkar Airport (UUYY) |
| Time | Latitude | Longitude | Altitude | Speed | Heading |
|---|---|---|---|---|---|
| 2026-04-20 14:22 | 66.59153 | 66.59032 | 218 ft | 0 kts | 49° |
| 2026-04-20 14:27 | 66.59151 | 66.59026 | 218 ft | 2 kts | 49° |
| 2026-04-20 14:27 | 66.59135 | 66.58977 | 219 ft | 4 kts | 49° |
| 2026-04-20 14:28 | 66.59130 | 66.58932 | 219 ft | 0 kts | 124° |
| 2026-04-20 14:30 | 66.59130 | 66.58933 | 219 ft | 0 kts | 124° |
| 2026-04-20 14:30 | 66.59125 | 66.58949 | 219 ft | 4 kts | 124° |
| 2026-04-20 14:30 | 66.59092 | 66.59072 | 221 ft | 11 kts | 122° |
| 2026-04-20 14:30 | 66.59058 | 66.59240 | 223 ft | 11 kts | 120° |
| 2026-04-20 14:31 | 66.59008 | 66.59387 | 226 ft | 11 kts | 133° |
| 2026-04-20 14:31 | 66.58950 | 66.59524 | 221 ft | 12 kts | 140° |
| 2026-04-20 14:31 | 66.58880 | 66.59639 | 222 ft | 12 kts | 151° |
| 2026-04-20 14:31 | 66.58802 | 66.59702 | 223 ft | 12 kts | 183° |
| 2026-04-20 14:32 | 66.58744 | 66.59587 | 223 ft | 11 kts | 238° |
| 2026-04-20 14:32 | 66.58702 | 66.59399 | 220 ft | 16 kts | 240° |
| 2026-04-20 14:32 | 66.58635 | 66.59103 | 229 ft | 22 kts | 240° |
| 2026-04-20 14:32 | 66.58560 | 66.58766 | 230 ft | 21 kts | 241° |
| 2026-04-20 14:33 | 66.58486 | 66.58497 | 227 ft | 11 kts | 246° |
| 2026-04-20 14:33 | 66.58492 | 66.58445 | 227 ft | 2 kts | 311° |
| 2026-04-20 14:33 | 66.58504 | 66.58448 | 226 ft | 2 kts | 11° |
| 2026-04-20 14:33 | 66.58509 | 66.58480 | 226 ft | 3 kts | 74° |
| 2026-04-20 14:34 | 66.58534 | 66.58626 | 226 ft | 16 kts | 62° |
| 2026-04-20 14:34 | 66.58742 | 66.59586 | 226 ft | 110 kts | 61° |
| 2026-04-20 14:34 | 66.59236 | 66.61859 | 316 ft | 173 kts | 60° |
| 2026-04-20 14:34 | 66.59857 | 66.64487 | 1268 ft | 177 kts | 53° |
| 2026-04-20 14:35 | 66.60843 | 66.66195 | 2370 ft | 166 kts | 5° |
| 2026-04-20 14:35 | 66.61935 | 66.65505 | 3379 ft | 172 kts | 322° |
| 2026-04-20 14:35 | 66.62606 | 66.62740 | 3677 ft | 207 kts | 279° |
| 2026-04-20 14:35 | 66.62411 | 66.58925 | 3890 ft | 237 kts | 248° |
| 2026-04-20 14:36 | 66.61617 | 66.55113 | 4276 ft | 251 kts | 240° |
| 2026-04-20 14:36 | 66.60716 | 66.51318 | 5192 ft | 255 kts | 240° |
| 2026-04-20 14:36 | 66.59814 | 66.47443 | 6128 ft | 259 kts | 241° |
| 2026-04-20 14:36 | 66.58915 | 66.43458 | 7001 ft | 264 kts | 242° |
| 2026-04-20 14:37 | 66.58013 | 66.39387 | 7857 ft | 269 kts | 243° |
| 2026-04-20 14:37 | 66.57105 | 66.35222 | 8748 ft | 274 kts | 243° |
| 2026-04-20 14:37 | 66.56188 | 66.30987 | 9644 ft | 278 kts | 243° |
| 2026-04-20 14:37 | 66.55260 | 66.26665 | 10498 ft | 285 kts | 244° |
| 2026-04-20 14:38 | 66.54274 | 66.22046 | 10712 ft | 316 kts | 244° |
| 2026-04-20 14:38 | 66.53191 | 66.16958 | 10847 ft | 345 kts | 244° |
| 2026-04-20 14:38 | 66.52037 | 66.11556 | 11480 ft | 354 kts | 244° |
| 2026-04-20 14:38 | 66.50862 | 66.06082 | 12321 ft | 359 kts | 244° |
| 2026-04-20 14:39 | 66.49669 | 66.00534 | 13188 ft | 364 kts | 244° |
| 2026-04-20 14:39 | 66.48461 | 65.94919 | 14067 ft | 369 kts | 244° |
| 2026-04-20 14:39 | 66.47234 | 65.89226 | 14834 ft | 374 kts | 244° |
| 2026-04-20 14:39 | 66.45991 | 65.83473 | 15594 ft | 378 kts | 244° |
| 2026-04-20 14:40 | 66.44730 | 65.77649 | 16357 ft | 383 kts | 244° |
| 2026-04-20 14:40 | 66.43451 | 65.71757 | 17107 ft | 388 kts | 244° |
| 2026-04-20 14:40 | 66.42155 | 65.65793 | 17856 ft | 393 kts | 244° |
| 2026-04-20 14:40 | 66.40845 | 65.59767 | 18584 ft | 397 kts | 245° |
| 2026-04-20 14:41 | 66.39587 | 65.53594 | 19228 ft | 401 kts | 247° |
| 2026-04-20 14:41 | 66.38384 | 65.47284 | 19858 ft | 405 kts | 248° |
| 2026-04-20 14:41 | 66.37201 | 65.40878 | 20477 ft | 409 kts | 249° |
| 2026-04-20 14:41 | 66.36017 | 65.34399 | 21088 ft | 413 kts | 249° |
| 2026-04-20 14:42 | 66.34822 | 65.27860 | 21689 ft | 417 kts | 249° |
| 2026-04-20 14:42 | 66.33609 | 65.21254 | 22309 ft | 422 kts | 249° |
| 2026-04-20 14:42 | 66.32381 | 65.14580 | 22905 ft | 426 kts | 249° |
| 2026-04-20 14:42 | 66.31135 | 65.07848 | 23554 ft | 431 kts | 249° |
| 2026-04-20 14:43 | 66.29872 | 65.01047 | 24117 ft | 435 kts | 249° |
| 2026-04-20 14:43 | 66.28593 | 64.94182 | 24646 ft | 439 kts | 249° |
| 2026-04-20 14:43 | 66.27302 | 64.87289 | 25169 ft | 443 kts | 249° |
| 2026-04-20 14:43 | 66.25996 | 64.80338 | 25670 ft | 446 kts | 248° |
| 2026-04-20 14:44 | 66.24676 | 64.73338 | 26172 ft | 449 kts | 248° |
| 2026-04-20 14:44 | 66.23347 | 64.66310 | 26669 ft | 452 kts | 248° |
| 2026-04-20 14:44 | 66.22003 | 64.59227 | 27145 ft | 456 kts | 248° |
| 2026-04-20 14:44 | 66.20644 | 64.52101 | 27616 ft | 459 kts | 248° |
| 2026-04-20 14:45 | 66.19272 | 64.44919 | 28088 ft | 463 kts | 248° |
| 2026-04-20 14:45 | 66.17888 | 64.37704 | 28549 ft | 466 kts | 248° |
| 2026-04-20 14:45 | 66.16491 | 64.30451 | 28984 ft | 469 kts | 248° |
| 2026-04-20 14:45 | 66.15078 | 64.23137 | 29408 ft | 473 kts | 248° |
| 2026-04-20 14:46 | 66.13655 | 64.15801 | 29820 ft | 476 kts | 248° |
| 2026-04-20 14:46 | 66.12218 | 64.08411 | 30201 ft | 479 kts | 248° |
| 2026-04-20 14:46 | 66.10788 | 64.01089 | 30612 ft | 481 kts | 247° |
| 2026-04-20 14:46 | 66.09307 | 63.93563 | 30976 ft | 483 kts | 247° |
| 2026-04-20 14:47 | 66.07826 | 63.86231 | 31412 ft | 483 kts | 246° |
| 2026-04-20 14:47 | 66.06321 | 63.78835 | 31861 ft | 483 kts | 246° |
| 2026-04-20 14:47 | 66.04822 | 63.71445 | 32296 ft | 482 kts | 246° |
| 2026-04-20 14:48 | 66.01848 | 63.56668 | 33121 ft | 482 kts | 247° |
| 2026-04-20 14:48 | 66.00364 | 63.49281 | 33527 ft | 482 kts | 247° |
| 2026-04-20 14:48 | 65.98879 | 63.41900 | 33945 ft | 482 kts | 246° |
| 2026-04-20 14:48 | 65.97395 | 63.34539 | 34314 ft | 481 kts | 246° |
| 2026-04-20 14:49 | 65.95907 | 63.27187 | 34609 ft | 481 kts | 246° |
| 2026-04-20 14:49 | 65.94417 | 63.19855 | 34904 ft | 481 kts | 246° |
| 2026-04-20 14:49 | 65.92921 | 63.12518 | 35209 ft | 481 kts | 246° |
| 2026-04-20 14:49 | 65.91422 | 63.05201 | 35495 ft | 481 kts | 246° |
| 2026-04-20 14:50 | 65.89920 | 62.97896 | 35787 ft | 480 kts | 246° |
| 2026-04-20 14:50 | 65.88417 | 62.90606 | 36064 ft | 480 kts | 246° |
| 2026-04-20 14:50 | 65.86908 | 62.83312 | 36259 ft | 482 kts | 246° |
| 2026-04-20 14:51 | 65.83860 | 62.68648 | 36331 ft | 484 kts | 245° |
| 2026-04-20 14:51 | 65.80810 | 62.54099 | 36331 ft | 480 kts | 245° |
| 2026-04-20 14:52 | 65.77755 | 62.39626 | 36327 ft | 481 kts | 245° |
| 2026-04-20 14:52 | 65.74682 | 62.25152 | 36326 ft | 481 kts | 245° |
| 2026-04-20 14:53 | 65.71594 | 62.10754 | 36319 ft | 481 kts | 244° |
| 2026-04-20 14:53 | 65.68452 | 61.96409 | 36316 ft | 481 kts | 245° |
| 2026-04-20 14:54 | 65.65365 | 61.82127 | 36297 ft | 481 kts | 245° |
| 2026-04-20 14:54 | 65.62281 | 61.67771 | 36310 ft | 481 kts | 245° |
| 2026-04-20 14:55 | 65.59167 | 61.53341 | 36306 ft | 481 kts | 245° |
| 2026-04-20 14:55 | 65.56060 | 61.39046 | 36306 ft | 481 kts | 245° |
| 2026-04-20 14:56 | 65.52959 | 61.24869 | 36301 ft | 481 kts | 244° |
| 2026-04-20 14:56 | 65.49826 | 61.10640 | 36280 ft | 480 kts | 244° |
| 2026-04-20 14:57 | 65.47194 | 60.98760 | 36300 ft | 480 kts | 244° |
| 2026-04-20 14:57 | 65.43523 | 60.82302 | 36293 ft | 480 kts | 244° |
| 2026-04-20 14:58 | 65.40348 | 60.68168 | 36293 ft | 480 kts | 244° |
| 2026-04-20 14:58 | 65.37163 | 60.54089 | 36297 ft | 480 kts | 244° |
| 2026-04-20 14:59 | 65.33965 | 60.40045 | 36281 ft | 480 kts | 243° |
| 2026-04-20 14:59 | 65.30715 | 60.26088 | 36303 ft | 480 kts | 243° |
| 2026-04-20 15:00 | 65.27428 | 60.12175 | 36299 ft | 480 kts | 243° |
| 2026-04-20 15:00 | 65.24173 | 59.98268 | 36301 ft | 480 kts | 243° |
| 2026-04-20 15:01 | 65.20922 | 59.84355 | 36294 ft | 480 kts | 243° |
| 2026-04-20 15:01 | 65.17663 | 59.70480 | 36274 ft | 480 kts | 243° |
| 2026-04-20 15:02 | 65.14387 | 59.56635 | 36291 ft | 480 kts | 243° |
| 2026-04-20 15:02 | 65.11098 | 59.42825 | 36288 ft | 480 kts | 242° |
| 2026-04-20 15:03 | 65.07796 | 59.29050 | 36288 ft | 480 kts | 242° |
| 2026-04-20 15:03 | 65.05044 | 59.17629 | 36276 ft | 480 kts | 242° |
| 2026-04-20 15:04 | 65.01719 | 59.03913 | 36276 ft | 480 kts | 242° |
| 2026-04-20 15:04 | 64.98382 | 58.90236 | 36272 ft | 480 kts | 242° |
| 2026-04-20 15:05 | 64.95037 | 58.76608 | 36277 ft | 480 kts | 242° |
| 2026-04-20 15:05 | 64.91674 | 58.63011 | 36278 ft | 480 kts | 241° |
| 2026-04-20 15:06 | 64.88236 | 58.49521 | 36272 ft | 480 kts | 241° |
| 2026-04-20 15:06 | 64.84821 | 58.36031 | 36274 ft | 480 kts | 241° |
| 2026-04-20 15:07 | 64.81418 | 58.22543 | 36267 ft | 480 kts | 241° |
| 2026-04-20 15:07 | 64.78021 | 58.09187 | 36268 ft | 480 kts | 240° |
| 2026-04-20 15:08 | 64.74594 | 57.95794 | 36272 ft | 479 kts | 240° |
| 2026-04-20 15:08 | 64.71159 | 57.82448 | 36266 ft | 479 kts | 240° |
| 2026-04-20 15:09 | 64.67689 | 57.69187 | 36275 ft | 478 kts | 240° |
| 2026-04-20 15:09 | 64.64191 | 57.56005 | 36262 ft | 478 kts | 240° |
| 2026-04-20 15:10 | 64.60698 | 57.42846 | 36270 ft | 477 kts | 240° |
| 2026-04-20 15:10 | 64.57200 | 57.29717 | 36269 ft | 477 kts | 240° |
| 2026-04-20 15:11 | 64.53690 | 57.16622 | 36274 ft | 477 kts | 239° |
| 2026-04-20 15:11 | 64.50172 | 57.03570 | 36270 ft | 477 kts | 239° |
| 2026-04-20 15:12 | 64.46640 | 56.90551 | 36264 ft | 477 kts | 239° |
| 2026-04-20 15:12 | 64.43093 | 56.77552 | 36265 ft | 477 kts | 239° |
| 2026-04-20 15:13 | 64.39538 | 56.64591 | 36265 ft | 477 kts | 239° |
| 2026-04-20 15:13 | 64.35963 | 56.51682 | 36263 ft | 476 kts | 239° |
| 2026-04-20 15:14 | 64.32363 | 56.38840 | 36266 ft | 477 kts | 239° |
| 2026-04-20 15:14 | 64.28780 | 56.25988 | 36260 ft | 476 kts | 239° |
| 2026-04-20 15:15 | 64.25208 | 56.13162 | 36263 ft | 476 kts | 239° |
| 2026-04-20 15:15 | 64.21622 | 56.00353 | 36266 ft | 476 kts | 239° |
| 2026-04-20 15:16 | 64.18026 | 55.87565 | 36265 ft | 477 kts | 239° |
| 2026-04-20 15:16 | 64.14418 | 55.74814 | 36267 ft | 476 kts | 238° |
| 2026-04-20 15:17 | 64.10798 | 55.62099 | 36265 ft | 477 kts | 238° |
| 2026-04-20 15:17 | 64.07167 | 55.49420 | 36265 ft | 477 kts | 238° |
| 2026-04-20 15:18 | 64.03543 | 55.36841 | 36261 ft | 477 kts | 238° |
| 2026-04-20 15:18 | 63.99890 | 55.24227 | 36262 ft | 477 kts | 238° |
| 2026-04-20 15:19 | 63.96206 | 55.11669 | 36266 ft | 477 kts | 237° |
| 2026-04-20 15:19 | 63.92473 | 54.99199 | 36259 ft | 477 kts | 237° |
| 2026-04-20 15:20 | 63.88750 | 54.86697 | 36262 ft | 477 kts | 237° |
| 2026-04-20 15:20 | 63.85041 | 54.74212 | 36261 ft | 477 kts | 237° |
| 2026-04-20 15:21 | 63.81323 | 54.61747 | 36262 ft | 477 kts | 237° |
| 2026-04-20 15:21 | 63.77593 | 54.49312 | 36262 ft | 477 kts | 237° |
| 2026-04-20 15:22 | 63.73851 | 54.36921 | 36255 ft | 477 kts | 237° |
| 2026-04-20 15:22 | 63.70096 | 54.24562 | 36264 ft | 478 kts | 237° |
| 2026-04-20 15:23 | 63.66332 | 54.12227 | 36263 ft | 478 kts | 237° |
| 2026-04-20 15:23 | 63.62556 | 53.99920 | 36257 ft | 478 kts | 237° |
| 2026-04-20 15:24 | 63.58769 | 53.87654 | 36246 ft | 478 kts | 237° |
| 2026-04-20 15:24 | 63.54472 | 53.76287 | 36250 ft | 481 kts | 222° |
| 2026-04-20 15:25 | 63.49124 | 53.67235 | 36251 ft | 482 kts | 216° |
| 2026-04-20 15:25 | 63.43620 | 53.58640 | 36251 ft | 483 kts | 217° |
| 2026-04-20 15:26 | 63.38174 | 53.49870 | 36245 ft | 482 kts | 218° |
| 2026-04-20 15:26 | 63.32771 | 53.41015 | 36247 ft | 482 kts | 218° |
| 2026-04-20 15:27 | 63.27370 | 53.32167 | 36239 ft | 482 kts | 218° |
| 2026-04-20 15:27 | 63.22481 | 53.24199 | 36239 ft | 482 kts | 218° |
| 2026-04-20 15:28 | 63.17071 | 53.15426 | 36240 ft | 482 kts | 218° |
| 2026-04-20 15:28 | 63.11649 | 53.06683 | 36235 ft | 482 kts | 217° |
| 2026-04-20 15:29 | 63.06227 | 52.97980 | 36232 ft | 482 kts | 217° |
| 2026-04-20 15:29 | 63.00829 | 52.89359 | 35951 ft | 474 kts | 217° |
| 2026-04-20 15:29 | 62.98171 | 52.85154 | 35700 ft | 469 kts | 217° |
| 2026-04-20 15:30 | 62.95511 | 52.80973 | 35297 ft | 470 kts | 217° |
| 2026-04-20 15:30 | 62.92858 | 52.76804 | 34763 ft | 468 kts | 217° |
| 2026-04-20 15:30 | 62.90231 | 52.72667 | 34225 ft | 463 kts | 217° |
| 2026-04-20 15:30 | 62.87623 | 52.68552 | 33611 ft | 461 kts | 217° |
| 2026-04-20 15:31 | 62.85025 | 52.64450 | 33062 ft | 459 kts | 217° |
| 2026-04-20 15:31 | 62.82438 | 52.60369 | 32527 ft | 459 kts | 217° |
| 2026-04-20 15:31 | 62.79846 | 52.56284 | 31986 ft | 459 kts | 217° |
| 2026-04-20 15:31 | 62.77262 | 52.52224 | 31467 ft | 458 kts | 217° |
| 2026-04-20 15:32 | 62.74674 | 52.48170 | 30928 ft | 457 kts | 217° |
| 2026-04-20 15:32 | 62.72097 | 52.44141 | 30404 ft | 455 kts | 217° |
| 2026-04-20 15:32 | 62.69525 | 52.40132 | 29785 ft | 454 kts | 217° |
| 2026-04-20 15:32 | 62.66958 | 52.36138 | 29192 ft | 454 kts | 217° |
| 2026-04-20 15:33 | 62.64383 | 52.32143 | 28643 ft | 457 kts | 217° |
| 2026-04-20 15:33 | 62.61783 | 52.28122 | 28024 ft | 459 kts | 217° |
| 2026-04-20 15:33 | 62.59176 | 52.24092 | 27432 ft | 461 kts | 217° |
| 2026-04-20 15:33 | 62.56560 | 52.20055 | 26834 ft | 463 kts | 217° |
| 2026-04-20 15:34 | 62.53928 | 52.16004 | 26228 ft | 464 kts | 217° |
| 2026-04-20 15:34 | 62.51291 | 52.11954 | 25626 ft | 466 kts | 217° |
| 2026-04-20 15:34 | 62.48638 | 52.07881 | 24997 ft | 466 kts | 216° |
| 2026-04-20 15:34 | 62.46002 | 52.03843 | 24411 ft | 464 kts | 216° |
| 2026-04-20 15:35 | 62.43374 | 51.99836 | 23819 ft | 460 kts | 215° |
| 2026-04-20 15:35 | 62.40761 | 51.95867 | 23128 ft | 459 kts | 215° |
| 2026-04-20 15:35 | 62.38156 | 51.91918 | 22486 ft | 457 kts | 215° |
| 2026-04-20 15:35 | 62.35561 | 51.87986 | 21894 ft | 455 kts | 215° |
| 2026-04-20 15:36 | 62.32978 | 51.84081 | 21302 ft | 452 kts | 215° |
| 2026-04-20 15:36 | 62.30408 | 51.80237 | 20715 ft | 448 kts | 214° |
| 2026-04-20 15:36 | 62.27854 | 51.76450 | 20136 ft | 444 kts | 214° |
| 2026-04-20 15:36 | 62.25310 | 51.72731 | 19557 ft | 441 kts | 212° |
| 2026-04-20 15:37 | 62.22646 | 51.69505 | 18983 ft | 438 kts | 206° |
| 2026-04-20 15:37 | 62.19904 | 51.66724 | 18390 ft | 434 kts | 203° |
| 2026-04-20 15:37 | 62.17147 | 51.64149 | 17767 ft | 431 kts | 202° |
| 2026-04-20 15:37 | 62.14401 | 51.61638 | 17172 ft | 427 kts | 202° |
| 2026-04-20 15:38 | 62.11686 | 51.59149 | 16598 ft | 422 kts | 202° |
| 2026-04-20 15:38 | 62.09000 | 51.56660 | 16040 ft | 419 kts | 202° |
| 2026-04-20 15:38 | 62.06347 | 51.54181 | 15490 ft | 415 kts | 202° |
| 2026-04-20 15:38 | 62.03713 | 51.51711 | 14947 ft | 412 kts | 202° |
| 2026-04-20 15:39 | 62.01104 | 51.49258 | 14409 ft | 408 kts | 202° |
| 2026-04-20 15:39 | 61.98524 | 51.46828 | 13877 ft | 404 kts | 202° |
| 2026-04-20 15:39 | 61.95966 | 51.44420 | 13312 ft | 399 kts | 202° |
| 2026-04-20 15:39 | 61.93442 | 51.42052 | 12785 ft | 395 kts | 202° |
| 2026-04-20 15:40 | 61.90944 | 51.39718 | 12273 ft | 390 kts | 202° |
| 2026-04-20 15:40 | 61.88470 | 51.37416 | 11787 ft | 386 kts | 201° |
| 2026-04-20 15:40 | 61.86021 | 51.35135 | 11319 ft | 382 kts | 201° |
| 2026-04-20 15:40 | 61.83598 | 51.32880 | 11077 ft | 379 kts | 201° |
| 2026-04-20 15:41 | 61.81253 | 51.30697 | 10962 ft | 357 kts | 201° |
| 2026-04-20 15:41 | 61.79058 | 51.28649 | 10849 ft | 334 kts | 201° |
| 2026-04-20 15:41 | 61.76996 | 51.26734 | 10720 ft | 314 kts | 200° |
| 2026-04-20 15:41 | 61.75057 | 51.24940 | 10595 ft | 296 kts | 200° |
| 2026-04-20 15:42 | 61.73167 | 51.23193 | 10433 ft | 298 kts | 200° |
| 2026-04-20 15:42 | 61.71277 | 51.21459 | 10062 ft | 296 kts | 200° |
| 2026-04-20 15:42 | 61.69390 | 51.19727 | 9553 ft | 295 kts | 200° |
| 2026-04-20 15:42 | 61.67523 | 51.18013 | 9080 ft | 291 kts | 200° |
| 2026-04-20 15:43 | 61.65684 | 51.16324 | 8645 ft | 287 kts | 199° |
| 2026-04-20 15:43 | 61.63889 | 51.14679 | 8224 ft | 284 kts | 199° |
| 2026-04-20 15:43 | 61.62086 | 51.13028 | 7794 ft | 281 kts | 199° |
| 2026-04-20 15:43 | 61.60300 | 51.11386 | 7391 ft | 278 kts | 200° |
| 2026-04-20 15:44 | 61.58593 | 51.09446 | 6997 ft | 280 kts | 207° |
| 2026-04-20 15:44 | 61.56950 | 51.07254 | 6632 ft | 279 kts | 209° |
| 2026-04-20 15:44 | 61.55336 | 51.05006 | 6252 ft | 278 kts | 209° |
| 2026-04-20 15:44 | 61.53733 | 51.02755 | 5873 ft | 276 kts | 210° |
| 2026-04-20 15:45 | 61.52140 | 51.00523 | 5506 ft | 275 kts | 210° |
| 2026-04-20 15:45 | 61.50550 | 50.98293 | 5157 ft | 275 kts | 210° |
| 2026-04-20 15:45 | 61.48960 | 50.96075 | 4784 ft | 275 kts | 211° |
| 2026-04-20 15:45 | 61.47894 | 50.94569 | 4531 ft | 274 kts | 212° |
| 2026-04-20 15:46 | 61.46497 | 50.91875 | 4164 ft | 275 kts | 232° |
| 2026-04-20 15:46 | 61.45756 | 50.88234 | 3827 ft | 272 kts | 264° |
| 2026-04-20 15:46 | 61.45920 | 50.84410 | 3506 ft | 261 kts | 289° |
| 2026-04-20 15:46 | 61.46517 | 50.80863 | 3121 ft | 256 kts | 296° |
| 2026-04-20 15:47 | 61.47531 | 50.76601 | 2970 ft | 243 kts | 312° |
| 2026-04-20 15:47 | 61.48316 | 50.74885 | 2986 ft | 239 kts | 328° |
| 2026-04-20 15:47 | 61.49763 | 50.73457 | 2984 ft | 227 kts | 355° |
| 2026-04-20 15:47 | 61.51281 | 50.73657 | 2993 ft | 217 kts | 20° |
| 2026-04-20 15:48 | 61.52732 | 50.74623 | 2767 ft | 216 kts | 22° |
| 2026-04-20 15:48 | 61.54092 | 50.75625 | 2445 ft | 195 kts | 25° |
| 2026-04-20 15:48 | 61.55280 | 50.76608 | 2174 ft | 178 kts | 25° |
| 2026-04-20 15:48 | 61.56377 | 50.77531 | 1901 ft | 158 kts | 26° |
| 2026-04-20 15:49 | 61.57346 | 50.78339 | 1689 ft | 147 kts | 27° |
| 2026-04-20 15:49 | 61.58288 | 50.79139 | 1499 ft | 146 kts | 26° |
| 2026-04-20 15:49 | 61.59233 | 50.79937 | 1308 ft | 147 kts | 25° |
| 2026-04-20 15:49 | 61.60184 | 50.80736 | 1072 ft | 147 kts | 26° |
| 2026-04-20 15:50 | 61.61133 | 50.81533 | 857 ft | 147 kts | 25° |
| 2026-04-20 15:50 | 61.62078 | 50.82327 | 659 ft | 149 kts | 25° |
| 2026-04-20 15:50 | 61.63046 | 50.83132 | 451 ft | 150 kts | 24° |
| 2026-04-20 15:50 | 61.64013 | 50.83944 | 310 ft | 143 kts | 26° |
| 2026-04-20 15:51 | 61.64799 | 50.84627 | 306 ft | 100 kts | 21° |
| 2026-04-20 15:51 | 61.65238 | 50.84994 | 307 ft | 44 kts | 22° |
| 2026-04-20 15:51 | 61.65340 | 50.85081 | 307 ft | 0 kts | 22° |
| 2026-04-20 15:55 | 61.65427 | 50.85147 | 308 ft | 27 kts | 19° |
| 2026-04-20 15:55 | 61.65596 | 50.85290 | 305 ft | 26 kts | 22° |
| 2026-04-20 15:55 | 61.65758 | 50.85333 | 305 ft | 23 kts | 348° |
| 2026-04-20 15:56 | 61.65896 | 50.85218 | 304 ft | 20 kts | 337° |
| 2026-04-20 15:56 | 61.66025 | 50.85180 | 306 ft | 18 kts | 10° |